createdAt,value
2023-05-25T00:01:01.701Z,12.28
2023-05-25T00:03:29.353Z,12.24
2023-05-25T00:05:55.798Z,12.09
2023-05-25T00:08:22.175Z,11.96
2023-05-25T00:10:48.556Z,12.03
2023-05-25T00:13:14.943Z,11.91
2023-05-25T00:15:41.332Z,11.90
2023-05-25T00:18:07.804Z,11.92
2023-05-25T00:20:34.299Z,11.89
2023-05-25T00:23:00.783Z,11.86
2023-05-25T00:25:27.138Z,11.80
2023-05-25T00:27:53.537Z,11.86
2023-05-25T00:30:19.907Z,11.81
2023-05-25T00:32:46.291Z,11.65
2023-05-25T00:35:12.678Z,11.73
2023-05-25T00:37:39.054Z,11.80
2023-05-25T00:40:05.448Z,11.62
2023-05-25T00:42:31.814Z,11.45
2023-05-25T00:44:58.199Z,11.49
2023-05-25T00:47:24.620Z,11.46
2023-05-25T00:49:51.025Z,11.32
2023-05-25T00:52:17.396Z,11.48
2023-05-25T00:54:43.758Z,11.31
2023-05-25T00:57:10.130Z,11.31
2023-05-25T00:59:36.510Z,11.32
2023-05-25T01:02:02.922Z,11.32
2023-05-25T01:04:29.291Z,11.37
2023-05-25T01:06:55.654Z,11.48
2023-05-25T01:09:22.006Z,11.34
2023-05-25T01:11:48.350Z,11.34
2023-05-25T01:14:14.721Z,11.36
2023-05-25T01:16:41.129Z,11.22
2023-05-25T01:19:07.539Z,11.29
2023-05-25T01:21:33.932Z,11.28
2023-05-25T01:24:00.313Z,11.17
2023-05-25T01:26:26.691Z,11.13
2023-05-25T01:28:53.039Z,11.23
2023-05-25T01:31:19.402Z,11.36
2023-05-25T01:33:45.765Z,11.44
2023-05-25T01:36:12.131Z,11.43
2023-05-25T01:38:38.522Z,11.36
2023-05-25T01:41:04.890Z,11.36
2023-05-25T01:43:31.268Z,11.41
2023-05-25T01:45:57.642Z,11.34
2023-05-25T01:48:24.010Z,11.39
2023-05-25T01:50:50.355Z,11.55
2023-05-25T01:53:16.708Z,11.43
2023-05-25T01:55:43.390Z,11.28
2023-05-25T01:58:09.935Z,11.24
2023-05-25T02:00:36.278Z,11.15
2023-05-25T02:03:02.743Z,11.17
2023-05-25T02:05:29.121Z,11.20
2023-05-25T02:07:55.500Z,11.20
2023-05-25T02:10:21.876Z,11.26
2023-05-25T02:12:48.262Z,11.39
2023-05-25T02:15:14.632Z,11.35
2023-05-25T02:17:41.052Z,11.31
2023-05-25T02:20:07.487Z,11.27
2023-05-25T02:22:33.885Z,11.15
2023-05-25T02:25:00.297Z,11.20
2023-05-25T02:27:26.666Z,11.16
2023-05-25T02:29:53.041Z,11.05
2023-05-25T02:32:19.412Z,11.14
2023-05-25T02:34:45.772Z,11.22
2023-05-25T02:37:12.158Z,11.14
2023-05-25T02:39:38.537Z,11.18
2023-05-25T02:42:04.921Z,11.10
2023-05-25T02:44:31.277Z,11.29
2023-05-25T02:46:57.675Z,11.21
2023-05-25T02:49:24.085Z,11.07
2023-05-25T02:51:50.448Z,11.11
2023-05-25T02:54:16.790Z,11.17
2023-05-25T02:56:43.141Z,11.26
2023-05-25T02:59:09.485Z,11.18
2023-05-25T03:01:35.874Z,11.08
2023-05-25T03:04:02.446Z,11.14
2023-05-25T03:06:28.848Z,11.05
2023-05-25T03:08:55.225Z,11.02
2023-05-25T03:11:21.601Z,11.15
2023-05-25T03:13:47.953Z,11.12
2023-05-25T03:16:14.371Z,11.14
2023-05-25T03:18:40.737Z,11.28
2023-05-25T03:21:07.117Z,11.35
2023-05-25T03:23:33.481Z,11.24
2023-05-25T03:25:59.885Z,11.14
2023-05-25T03:28:26.248Z,11.18
2023-05-25T03:30:52.614Z,11.23
2023-05-25T03:33:18.991Z,11.36
2023-05-25T03:35:45.571Z,11.35
2023-05-25T03:38:12.156Z,11.30
2023-05-25T03:40:38.565Z,11.31
2023-05-25T03:43:04.936Z,11.36
2023-05-25T03:45:31.338Z,11.25
2023-05-25T03:47:57.765Z,11.22
2023-05-25T03:50:24.147Z,11.37
2023-05-25T03:52:50.500Z,11.14
2023-05-25T03:55:16.910Z,11.26
2023-05-25T03:57:43.288Z,11.08
2023-05-25T04:00:09.680Z,10.86
2023-05-25T04:02:36.107Z,10.97
2023-05-25T04:05:02.500Z,10.85
2023-05-25T04:07:28.852Z,10.88
2023-05-25T04:09:55.203Z,10.82
2023-05-25T04:12:21.586Z,11.01
2023-05-25T04:14:47.949Z,10.82
2023-05-25T04:17:14.379Z,10.96
2023-05-25T04:19:40.726Z,10.86
2023-05-25T04:22:07.099Z,10.80
2023-05-25T04:24:33.504Z,10.79
2023-05-25T04:26:59.884Z,10.84
2023-05-25T04:29:26.268Z,10.81
2023-05-25T04:31:52.651Z,10.86
2023-05-25T04:34:19.042Z,10.76
2023-05-25T04:36:45.419Z,10.86
2023-05-25T04:39:11.826Z,10.87
2023-05-25T04:41:38.194Z,10.89
2023-05-25T04:44:09.589Z,10.95
2023-05-25T04:46:36.661Z,11.01
2023-05-25T04:49:03.024Z,10.86
2023-05-25T04:51:29.409Z,10.96
2023-05-25T04:53:55.781Z,10.97
2023-05-25T04:56:22.338Z,11.09
2023-05-25T04:58:48.756Z,10.90
2023-05-25T05:01:25.868Z,11.01
2023-05-25T05:03:52.300Z,11.08
2023-05-25T05:06:18.657Z,11.14
2023-05-25T05:08:45.026Z,11.12
2023-05-25T05:11:11.409Z,11.10
2023-05-25T05:13:37.776Z,10.97
2023-05-25T05:16:04.244Z,11.07
2023-05-25T05:18:30.656Z,11.10
2023-05-25T05:20:57.042Z,10.93
2023-05-25T05:23:23.415Z,10.88
2023-05-25T05:25:49.814Z,10.88
2023-05-25T05:28:16.168Z,10.80
2023-05-25T05:30:42.514Z,10.87
2023-05-25T05:33:08.985Z,10.96
2023-05-25T05:35:35.410Z,10.90
2023-05-25T05:38:01.765Z,10.88
2023-05-25T05:40:28.128Z,10.92
2023-05-25T05:42:54.496Z,10.98
2023-05-25T05:45:20.873Z,10.94
2023-05-25T05:47:47.260Z,11.08
2023-05-25T05:50:13.677Z,11.16
2023-05-25T05:52:40.027Z,11.18
2023-05-25T05:55:06.412Z,11.23
2023-05-25T05:57:32.792Z,11.23
2023-05-25T05:59:59.164Z,11.15
2023-05-25T06:02:25.701Z,11.20
2023-05-25T06:04:52.173Z,11.10
2023-05-25T06:07:18.551Z,11.09
2023-05-25T06:09:44.932Z,10.97
2023-05-25T06:12:11.300Z,10.96
2023-05-25T06:14:37.671Z,11.15
2023-05-25T06:17:04.205Z,11.15
2023-05-25T06:19:30.680Z,11.18
2023-05-25T06:21:57.040Z,11.24
2023-05-25T06:24:23.407Z,11.27
2023-05-25T06:26:49.771Z,11.36
2023-05-25T06:29:17.173Z,11.32
2023-05-25T06:31:43.941Z,11.40
2023-05-25T06:34:10.393Z,11.37
2023-05-25T06:36:36.782Z,11.52
2023-05-25T06:39:03.149Z,11.61
2023-05-25T06:41:29.511Z,11.65
2023-05-25T06:43:55.873Z,11.73
2023-05-25T06:46:23.403Z,11.41
2023-05-25T06:48:49.776Z,11.53
2023-05-25T06:51:16.160Z,11.67
2023-05-25T06:53:42.532Z,11.62
2023-05-25T06:56:08.892Z,11.78
2023-05-25T06:58:35.266Z,11.82
2023-05-25T07:01:01.784Z,11.77
2023-05-25T07:03:28.279Z,11.80
2023-05-25T07:05:54.657Z,11.70
2023-05-25T07:08:21.033Z,11.67
2023-05-25T07:10:49.884Z,11.82
2023-05-25T07:13:16.586Z,11.93
2023-05-25T07:15:43.095Z,11.93
2023-05-25T07:18:09.694Z,12.12
2023-05-25T07:20:36.140Z,12.11
2023-05-25T07:23:02.546Z,12.16
2023-05-25T07:25:29.340Z,12.15
2023-05-25T07:27:55.724Z,12.18
2023-05-25T07:30:22.117Z,12.35
2023-05-25T07:32:48.527Z,12.57
2023-05-25T07:35:14.938Z,12.60
2023-05-25T07:37:41.297Z,12.82
2023-05-25T07:40:07.736Z,12.90
2023-05-25T07:42:34.160Z,12.97
2023-05-25T07:45:00.552Z,12.98
2023-05-25T07:47:26.966Z,12.90
2023-05-25T07:49:53.322Z,12.89
2023-05-25T07:52:19.693Z,12.80
2023-05-25T07:54:46.097Z,12.83
2023-05-25T07:57:12.458Z,13.00
2023-05-25T07:59:38.803Z,13.06
2023-05-25T08:02:05.206Z,12.95
2023-05-25T08:04:31.766Z,13.20
2023-05-25T08:06:58.345Z,13.35
2023-05-25T08:09:24.734Z,13.43
2023-05-25T08:11:51.105Z,13.48
2023-05-25T08:14:17.496Z,13.40
2023-05-25T08:16:43.894Z,13.51
2023-05-25T08:19:10.278Z,13.55
2023-05-25T08:21:36.637Z,13.46
2023-05-25T08:24:02.996Z,13.47
2023-05-25T08:26:45.217Z,13.53
2023-05-25T08:29:15.658Z,13.66
2023-05-25T08:31:42.087Z,13.90
2023-05-25T08:34:08.499Z,14.07
2023-05-25T08:36:34.853Z,14.12
2023-05-25T08:39:01.231Z,14.21
2023-05-25T08:41:27.601Z,14.25
2023-05-25T08:43:53.989Z,14.30
2023-05-25T08:46:20.380Z,14.32
2023-05-25T08:48:46.829Z,14.17
2023-05-25T08:51:13.292Z,14.08
2023-05-25T08:53:39.706Z,14.22
2023-05-25T08:56:06.076Z,14.25
2023-05-25T08:58:32.471Z,14.03
2023-05-25T09:00:58.865Z,14.05
2023-05-25T09:03:25.359Z,14.18
2023-05-25T09:05:51.840Z,14.15
2023-05-25T09:08:18.227Z,14.21
2023-05-25T09:10:44.595Z,14.48
2023-05-25T09:13:21.421Z,14.32
2023-05-25T09:15:49.083Z,14.21
2023-05-25T09:18:15.544Z,14.33
2023-05-25T09:20:45.118Z,14.38
2023-05-25T09:23:12.766Z,14.51
2023-05-25T09:25:39.138Z,14.43
2023-05-25T09:28:24.198Z,14.45
2023-05-25T09:30:51.833Z,14.66
2023-05-25T09:33:18.239Z,15.00
2023-05-25T09:35:44.631Z,15.17
2023-05-25T09:38:11.307Z,15.35
2023-05-25T09:40:37.775Z,15.41
2023-05-25T09:43:04.158Z,15.49
2023-05-25T09:45:30.517Z,15.56
2023-05-25T09:47:56.890Z,15.73
2023-05-25T09:50:23.280Z,15.80
2023-05-25T09:52:49.646Z,15.77
2023-05-25T09:55:16.000Z,16.01
2023-05-25T09:57:42.364Z,16.02
2023-05-25T10:00:08.733Z,16.03
2023-05-25T10:02:35.171Z,16.03
2023-05-25T10:05:01.633Z,16.18
2023-05-25T10:07:28.056Z,16.31
2023-05-25T10:09:54.404Z,16.46
2023-05-25T10:12:20.784Z,16.69
2023-05-25T10:14:47.176Z,16.55
2023-05-25T10:17:13.523Z,16.34
2023-05-25T10:19:39.876Z,16.33
2023-05-25T10:22:06.242Z,16.30
2023-05-25T10:24:32.605Z,16.31
2023-05-25T10:27:00.438Z,16.53
2023-05-25T10:29:29.603Z,16.45
2023-05-25T10:31:56.006Z,16.39
2023-05-25T10:34:22.398Z,16.58
2023-05-25T10:36:48.790Z,16.58
2023-05-25T10:39:15.179Z,16.54
2023-05-25T10:41:41.922Z,16.45
2023-05-25T10:44:08.353Z,16.32
2023-05-25T10:46:34.778Z,16.04
2023-05-25T10:49:01.180Z,16.30
2023-05-25T10:51:27.572Z,16.43
2023-05-25T10:53:53.933Z,16.49
2023-05-25T10:56:20.396Z,16.62
2023-05-25T10:58:46.806Z,16.80
2023-05-25T11:01:13.265Z,16.71
2023-05-25T11:03:39.702Z,17.03
2023-05-25T11:06:06.072Z,17.15
2023-05-25T11:08:32.426Z,17.24
2023-05-25T11:10:58.798Z,17.40
2023-05-25T11:13:25.190Z,17.50
2023-05-25T11:15:51.540Z,17.64
2023-05-25T11:18:17.885Z,17.70
2023-05-25T11:20:44.353Z,17.61
2023-05-25T11:23:10.827Z,17.74
2023-05-25T11:25:37.383Z,17.74
2023-05-25T11:28:03.827Z,17.81
2023-05-25T11:30:30.197Z,17.79
2023-05-25T11:32:56.605Z,17.90
2023-05-25T11:35:22.950Z,17.97
2023-05-25T11:37:49.304Z,18.13
2023-05-25T11:40:15.668Z,18.21
2023-05-25T11:42:42.050Z,18.34
2023-05-25T11:45:08.436Z,18.24
2023-05-25T11:47:35.926Z,18.42
2023-05-25T11:50:03.714Z,18.52
2023-05-25T11:52:30.085Z,18.63
2023-05-25T11:54:56.447Z,18.48
2023-05-25T11:57:22.830Z,18.69
2023-05-25T11:59:49.219Z,18.59
2023-05-25T12:02:15.574Z,18.48
2023-05-25T12:04:42.019Z,18.65
2023-05-25T12:07:08.534Z,18.66
2023-05-25T12:09:34.919Z,18.61
2023-05-25T12:12:01.305Z,18.54
2023-05-25T12:14:27.683Z,18.77
2023-05-25T12:16:54.115Z,18.76
2023-05-25T12:19:20.621Z,18.90
2023-05-25T12:21:46.997Z,18.86
2023-05-25T12:24:13.402Z,18.94
2023-05-25T12:26:39.862Z,19.14
2023-05-25T12:29:06.379Z,19.14
2023-05-25T12:31:32.778Z,19.20
2023-05-25T12:33:59.187Z,19.37
2023-05-25T12:36:25.550Z,19.35
2023-05-25T12:38:51.913Z,19.35
2023-05-25T12:41:18.283Z,19.25
2023-05-25T12:43:44.651Z,19.45
2023-05-25T12:46:11.142Z,19.32
2023-05-25T12:48:37.622Z,19.42
2023-05-25T12:51:04.028Z,19.60
2023-05-25T12:53:30.405Z,19.44
2023-05-25T12:55:56.760Z,19.58
2023-05-25T12:58:23.141Z,19.40
2023-05-25T13:00:49.541Z,19.65
2023-05-25T13:03:15.988Z,19.78
2023-05-25T13:05:42.385Z,19.71
2023-05-25T13:08:08.796Z,19.82
2023-05-25T13:10:35.163Z,19.75
2023-05-25T13:13:01.530Z,19.95
2023-05-25T13:15:27.902Z,20.07
2023-05-25T13:17:54.324Z,20.02
2023-05-25T13:20:20.797Z,20.03
2023-05-25T13:22:47.185Z,20.11
2023-05-25T13:25:13.534Z,20.21
2023-05-25T13:27:39.912Z,20.24
2023-05-25T13:30:06.270Z,20.11
2023-05-25T13:32:32.663Z,20.16
2023-05-25T13:34:59.068Z,20.15
2023-05-25T13:37:25.419Z,20.05
2023-05-25T13:39:51.866Z,20.36
2023-05-25T13:42:18.224Z,20.42
2023-05-25T13:44:44.565Z,20.45
2023-05-25T13:47:11.000Z,20.56
2023-05-25T13:49:37.446Z,20.61
2023-05-25T13:52:03.892Z,20.44
2023-05-25T13:54:30.274Z,20.42
2023-05-25T13:56:56.663Z,20.60
2023-05-25T13:59:23.036Z,20.77
2023-05-25T14:01:49.504Z,20.86
2023-05-25T14:04:15.910Z,20.98
2023-05-25T14:06:42.293Z,20.98
2023-05-25T14:09:08.681Z,21.13
2023-05-25T14:11:35.041Z,21.06
2023-05-25T14:14:01.382Z,21.21
2023-05-25T14:16:27.829Z,21.40
2023-05-25T14:18:54.269Z,21.30
2023-05-25T14:21:20.626Z,21.42
2023-05-25T14:23:47.017Z,21.58
2023-05-25T14:26:13.380Z,21.60
2023-05-25T14:28:39.738Z,21.89
2023-05-25T14:31:06.143Z,21.81
2023-05-25T14:33:32.514Z,21.89
2023-05-25T14:35:58.886Z,22.19
2023-05-25T14:38:25.258Z,22.50
2023-05-25T14:40:51.625Z,22.40
2023-05-25T14:43:17.968Z,22.23
2023-05-25T14:45:44.570Z,22.07
2023-05-25T14:48:16.729Z,22.33
2023-05-25T14:50:43.469Z,21.93
2023-05-25T14:53:09.812Z,21.96
2023-05-25T14:55:36.153Z,22.24
2023-05-25T14:58:02.517Z,22.25
2023-05-25T15:00:28.858Z,22.27
2023-05-25T15:02:55.344Z,22.24
2023-05-25T15:05:21.857Z,22.31
2023-05-25T15:07:48.383Z,22.52
2023-05-25T15:10:14.775Z,22.75
2023-05-25T15:12:41.131Z,22.89
2023-05-25T15:15:07.484Z,22.81
2023-05-25T15:17:33.890Z,22.87
2023-05-25T15:20:00.460Z,22.64
2023-05-25T15:22:26.981Z,22.73
2023-05-25T15:24:53.345Z,22.93
2023-05-25T15:27:19.705Z,23.00
2023-05-25T15:29:46.057Z,22.85
2023-05-25T15:32:12.514Z,22.84
2023-05-25T15:34:38.929Z,22.78
2023-05-25T15:37:05.306Z,22.70
2023-05-25T15:39:31.688Z,22.69
2023-05-25T15:41:58.030Z,22.92
2023-05-25T15:44:24.401Z,23.27
2023-05-25T15:46:50.884Z,23.37
2023-05-25T15:49:17.338Z,23.00
2023-05-25T15:51:43.765Z,23.09
2023-05-25T15:54:13.438Z,23.01
2023-05-25T15:56:40.850Z,22.87
2023-05-25T15:59:07.234Z,23.04
2023-05-25T16:01:33.650Z,23.24
2023-05-25T16:04:00.157Z,23.02
2023-05-25T16:06:26.599Z,22.62
2023-05-25T16:08:52.988Z,22.63
2023-05-25T16:11:19.401Z,22.70
2023-05-25T16:13:45.795Z,22.70
2023-05-25T16:16:12.204Z,22.48
2023-05-25T16:18:38.660Z,22.48
2023-05-25T16:21:05.049Z,22.57
2023-05-25T16:23:31.427Z,22.37
2023-05-25T16:25:57.819Z,22.16
2023-05-25T16:28:24.198Z,22.11
2023-05-25T16:30:50.580Z,21.99
2023-05-25T16:33:17.027Z,21.93
2023-05-25T16:35:43.597Z,21.87
2023-05-25T16:38:10.237Z,22.26
2023-05-25T16:40:36.593Z,22.33
2023-05-25T16:43:02.965Z,22.70
2023-05-25T16:45:29.312Z,22.71
2023-05-25T16:47:55.727Z,22.73
2023-05-25T16:50:22.141Z,22.82
2023-05-25T16:52:48.565Z,22.94
2023-05-25T16:55:14.985Z,22.79
2023-05-25T16:57:41.354Z,22.94
2023-05-25T17:00:07.736Z,22.90
2023-05-25T17:02:34.184Z,22.63
2023-05-25T17:05:00.661Z,22.67
2023-05-25T17:07:27.066Z,22.61
2023-05-25T17:09:53.493Z,22.29
2023-05-25T17:12:19.873Z,22.22
2023-05-25T17:14:46.234Z,22.09
2023-05-25T17:17:12.604Z,21.71
2023-05-25T17:19:38.984Z,21.50
2023-05-25T17:22:05.368Z,21.35
2023-05-25T17:24:31.764Z,21.53
2023-05-25T17:26:58.154Z,21.44
2023-05-25T17:29:24.528Z,21.36
2023-05-25T17:31:50.993Z,21.41
2023-05-25T17:34:17.390Z,21.36
2023-05-25T17:36:43.761Z,21.36
2023-05-25T17:39:10.134Z,21.44
2023-05-25T17:41:36.496Z,21.31
2023-05-25T17:44:02.860Z,21.20
2023-05-25T17:46:29.453Z,21.07
2023-05-25T17:48:55.991Z,20.96
2023-05-25T17:51:22.365Z,20.75
2023-05-25T17:53:48.751Z,20.66
2023-05-25T17:56:15.144Z,20.42
2023-05-25T17:58:41.565Z,20.32
2023-05-25T18:01:08.049Z,20.21
2023-05-25T18:03:34.510Z,20.24
2023-05-25T18:06:00.950Z,20.05
2023-05-25T18:08:27.309Z,20.14
2023-05-25T18:10:53.683Z,20.19
2023-05-25T18:13:20.060Z,20.23
2023-05-25T18:15:46.639Z,20.05
2023-05-25T18:18:13.201Z,20.12
2023-05-25T18:20:39.690Z,20.10
2023-05-25T18:23:06.120Z,20.14
2023-05-25T18:25:32.509Z,19.93
2023-05-25T18:27:58.880Z,19.93
2023-05-25T18:30:25.249Z,19.85
2023-05-25T18:32:51.664Z,19.78
2023-05-25T18:35:18.045Z,19.68
2023-05-25T18:37:44.397Z,19.75
2023-05-25T18:40:10.759Z,19.75
2023-05-25T18:42:37.122Z,19.64
2023-05-25T18:45:03.473Z,19.57
2023-05-25T18:47:29.874Z,19.32
2023-05-25T18:49:56.238Z,19.24
2023-05-25T18:52:22.640Z,19.31
2023-05-25T18:54:53.452Z,19.16
2023-05-25T18:57:19.830Z,19.11
2023-05-25T18:59:46.218Z,18.88
2023-05-25T19:02:12.652Z,18.80
2023-05-25T19:04:39.003Z,18.78
2023-05-25T19:07:05.346Z,18.70
2023-05-25T19:09:31.727Z,18.76
2023-05-25T19:11:59.979Z,18.76
2023-05-25T19:14:29.142Z,18.63
2023-05-25T19:16:58.666Z,18.57
2023-05-25T19:19:31.393Z,18.53
2023-05-25T19:21:57.780Z,18.45
2023-05-25T19:24:24.137Z,18.27
2023-05-25T19:26:50.513Z,18.34
2023-05-25T19:29:16.895Z,18.31
2023-05-25T19:31:43.286Z,18.28
2023-05-25T19:34:09.664Z,18.24
2023-05-25T19:36:36.047Z,18.11
2023-05-25T19:39:02.449Z,18.15
2023-05-25T19:41:28.823Z,18.04
2023-05-25T19:43:55.195Z,17.98
2023-05-25T19:46:21.646Z,17.79
2023-05-25T19:48:48.051Z,17.85
2023-05-25T19:51:14.423Z,17.57
2023-05-25T19:53:40.779Z,17.47
2023-05-25T19:56:07.166Z,17.30
2023-05-25T19:58:33.528Z,17.19
2023-05-25T20:00:59.921Z,17.16
2023-05-25T20:03:26.431Z,16.85
2023-05-25T20:05:52.847Z,16.94
2023-05-25T20:08:19.221Z,16.92
2023-05-25T20:10:45.606Z,16.85
2023-05-25T20:13:11.984Z,16.83
2023-05-25T20:15:38.411Z,16.85
2023-05-25T20:18:04.798Z,16.89
2023-05-25T20:20:31.326Z,16.84
2023-05-25T20:22:57.789Z,16.80
2023-05-25T20:25:24.170Z,16.86
2023-05-25T20:27:50.529Z,16.93
2023-05-25T20:30:16.903Z,16.92
2023-05-25T20:32:43.318Z,16.91
2023-05-25T20:35:09.723Z,17.00
2023-05-25T20:37:36.076Z,16.97
2023-05-25T20:40:02.438Z,16.92
2023-05-25T20:42:28.799Z,16.84
2023-05-25T20:44:55.152Z,16.81
2023-05-25T20:47:21.516Z,16.66
2023-05-25T20:49:47.911Z,16.50
2023-05-25T20:52:14.284Z,16.56
2023-05-25T20:54:40.656Z,16.64
2023-05-25T20:57:07.012Z,16.64
2023-05-25T20:59:33.380Z,16.59
2023-05-25T21:01:59.913Z,16.57
2023-05-25T21:04:26.339Z,16.55
2023-05-25T21:06:52.771Z,16.48
2023-05-25T21:09:19.158Z,16.54
2023-05-25T21:11:45.524Z,16.50
2023-05-25T21:14:11.878Z,16.46
2023-05-25T21:16:38.376Z,16.37
2023-05-25T21:19:04.819Z,16.39
2023-05-25T21:21:31.196Z,16.40
2023-05-25T21:23:57.569Z,16.31
2023-05-25T21:26:23.940Z,16.33
2023-05-25T21:28:50.352Z,16.27
2023-05-25T21:31:16.740Z,16.07
2023-05-25T21:33:43.174Z,16.16
2023-05-25T21:36:09.525Z,16.11
2023-05-25T21:38:35.888Z,16.03
2023-05-25T21:41:02.270Z,16.09
2023-05-25T21:43:28.634Z,16.01
2023-05-25T21:45:55.016Z,16.15
2023-05-25T21:48:21.417Z,16.25
2023-05-25T21:50:47.813Z,16.17
2023-05-25T21:53:14.191Z,16.20
2023-05-25T21:55:40.560Z,16.23
2023-05-25T21:58:06.938Z,16.14
2023-05-25T22:00:35.254Z,16.13
2023-05-25T22:03:01.961Z,16.08
2023-05-25T22:05:28.448Z,16.07
2023-05-25T22:07:55.845Z,16.14
2023-05-25T22:10:22.383Z,16.12
2023-05-25T22:12:48.772Z,16.11
2023-05-25T22:15:15.133Z,16.05
2023-05-25T22:17:41.554Z,16.06
2023-05-25T22:20:08.568Z,16.04
2023-05-25T22:22:35.092Z,16.01
2023-05-25T22:25:01.525Z,15.95
2023-05-25T22:27:27.902Z,15.87
2023-05-25T22:29:54.265Z,15.70
2023-05-25T22:32:20.634Z,15.55
2023-05-25T22:34:47.028Z,15.51
2023-05-25T22:37:13.398Z,15.49
2023-05-25T22:39:39.770Z,15.43
2023-05-25T22:42:06.120Z,15.37
2023-05-25T22:44:32.465Z,15.33
2023-05-25T22:46:58.853Z,15.30
2023-05-25T22:49:25.216Z,15.17
2023-05-25T22:51:51.581Z,15.21
2023-05-25T22:54:17.929Z,15.09
2023-05-25T22:56:44.278Z,15.03
2023-05-25T22:59:10.642Z,14.97
2023-05-25T23:01:37.069Z,14.87
2023-05-25T23:04:03.495Z,14.84
2023-05-25T23:06:29.981Z,14.73
2023-05-25T23:08:56.364Z,14.69
2023-05-25T23:11:22.724Z,14.64
2023-05-25T23:13:49.096Z,14.51
2023-05-25T23:16:15.563Z,14.51
2023-05-25T23:18:42.004Z,14.44
2023-05-25T23:21:08.384Z,14.51
2023-05-25T23:23:34.798Z,14.47
2023-05-25T23:26:01.173Z,14.42
2023-05-25T23:28:27.592Z,14.41
2023-05-25T23:30:53.990Z,14.36
2023-05-25T23:33:20.368Z,14.37
2023-05-25T23:35:46.971Z,14.33
2023-05-25T23:38:13.459Z,14.23
2023-05-25T23:40:39.824Z,14.24
2023-05-25T23:43:06.191Z,14.23
2023-05-25T23:45:32.568Z,14.29
2023-05-25T23:47:59.017Z,14.18
2023-05-25T23:50:25.479Z,14.08
2023-05-25T23:52:51.873Z,14.02
2023-05-25T23:55:18.305Z,14.06
2023-05-25T23:57:44.672Z,14.14
